Time;durP1;ratioP1;P1;durP2;ratioP2;P2;SDS_P1;SDS_P2;PMS_P1;PMS_P2;Temp;Humidity;BMP_temperature;BMP_pressure;BME280_temperature;BME280_humidity;BME280_pressure;Samples;Min_cycle;Max_cycle;Signal;HPM_P1;HPM_P2
2021/07/04 00:04:29;;;;;;;30.63;24.05;;;;;;;;;;6228718;22;19921;-83
2021/07/04 00:06:58;;;;;;;25.98;20.63;;;;;;;;;;5087683;28;36702;-83
2021/07/04 00:45:52;;;;;;;32.90;24.95;;;;;;;;;;5845319;22;20037;-83
2021/07/04 00:48:19;;;;;;;36.78;26.33;;;;;;;;;;5069535;28;38818;-83
2021/07/04 00:50:50;;;;;;;35.95;25.13;;;;;;;;;;5064724;28;37995;-83
2021/07/04 00:53:21;;;;;;;35.10;27.17;;;;;;;;;;5077709;28;37283;-83
2021/07/04 01:42:42;;;;;;;66.65;40.13;;;;;;;;;;5861082;22;20266;-83
2021/07/04 01:45:10;;;;;;;61.88;38.85;;;;;;;;;;5073032;28;35797;-84
2021/07/04 02:54:04;;;;;;;61.00;36.97;;;;;;;;;;6086594;22;19920;-83
2021/07/04 02:56:36;;;;;;;59.53;36.55;;;;;;;;;;5083932;28;38495;-82
2021/07/04 02:59:03;;;;;;;51.05;32.35;;;;;;;;;;5079348;28;37872;-83
2021/07/04 03:01:31;;;;;;;55.60;34.53;;;;;;;;;;5083479;28;48621;-84
2021/07/04 03:03:57;;;;;;;53.75;32.28;;;;;;;;;;5088225;28;40327;-83
2021/07/04 03:06:30;;;;;;;61.25;35.05;;;;;;;;;;5085852;28;37848;-82
2021/07/04 03:08:57;;;;;;;59.80;34.45;;;;;;;;;;5087805;28;37811;-83
2021/07/04 03:11:23;;;;;;;67.38;37.10;;;;;;;;;;5270396;22;39273;-82
2021/07/04 03:58:13;;;;;;;53.10;31.00;;;;;;;;;;5551318;22;20033;-83
2021/07/04 04:00:43;;;;;;;46.75;30.05;;;;;;;;;;5095529;28;37125;-83
2021/07/04 04:39:37;;;;;;;35.65;25.08;;;;;;;;;;5594779;22;20051;-83
2021/07/04 04:50:21;;;;;;;40.78;28.00;;;;;;;;;;5962927;22;20033;-82
2021/07/04 04:52:50;;;;;;;39.38;25.73;;;;;;;;;;5064508;28;37858;-82
2021/07/04 04:55:18;;;;;;;38.90;25.90;;;;;;;;;;5068194;28;40388;-83
2021/07/04 04:57:46;;;;;;;38.60;25.35;;;;;;;;;;5069873;28;38551;-82
2021/07/04 05:00:17;;;;;;;36.28;24.70;;;;;;;;;;5066935;28;38277;-82
2021/07/04 05:03:06;;;;;;;36.85;25.10;;;;;;;;;;5060320;28;37346;-83
2021/07/04 05:05:43;;;;;;;40.63;25.48;;;;;;;;;;5066171;28;48704;-83
2021/07/04 05:08:11;;;;;;;36.30;25.30;;;;;;;;;;5058327;28;39090;-83
2021/07/04 05:10:41;;;;;;;34.67;25.25;;;;;;;;;;5061977;28;38507;-83
2021/07/04 05:13:14;;;;;;;36.47;25.25;;;;;;;;;;5057733;28;38013;-82
2021/07/04 05:15:40;;;;;;;37.17;25.90;;;;;;;;;;5054235;28;38848;-82
2021/07/04 05:18:08;;;;;;;36.22;25.17;;;;;;;;;;5047539;28;38454;-84
2021/07/04 05:20:37;;;;;;;36.80;25.40;;;;;;;;;;5068863;28;38254;-83
2021/07/04 05:23:03;;;;;;;34.20;23.73;;;;;;;;;;5084719;28;37438;-84
2021/07/04 05:41:09;;;;;;;26.27;20.35;;;;;;;;;;5209487;22;20033;-81
2021/07/04 05:43:45;;;;;;;25.08;19.70;;;;;;;;;;5086794;28;37390;-81
2021/07/04 05:46:14;;;;;;;27.23;20.05;;;;;;;;;;5082423;28;39093;-82
2021/07/04 05:48:42;;;;;;;21.70;17.65;;;;;;;;;;5525134;22;39669;-83
2021/07/04 05:51:14;;;;;;;22.67;17.80;;;;;;;;;;5065146;28;37913;-82
2021/07/04 05:53:46;;;;;;;17.75;15.50;;;;;;;;;;5090030;28;38390;-80
2021/07/04 05:59:05;;;;;;;18.92;15.65;;;;;;;;;;5319878;22;20040;-83
2021/07/04 06:01:35;;;;;;;18.10;14.55;;;;;;;;;;5078155;28;37821;-84
2021/07/04 06:04:01;;;;;;;18.95;15.05;;;;;;;;;;5083472;28;36391;-83
2021/07/04 06:06:28;;;;;;;16.73;13.55;;;;;;;;;;5088736;28;50068;-84
2021/07/04 06:14:07;;;;;;;19.02;14.18;;;;;;;;;;5840108;22;20052;-81
2021/07/04 06:16:35;;;;;;;18.00;14.27;;;;;;;;;;5080083;28;38845;-82
2021/07/04 06:19:02;;;;;;;16.38;13.98;;;;;;;;;;5078321;28;39959;-81
2021/07/04 06:21:43;;;;;;;15.70;12.15;;;;;;;;;;5084839;28;49144;-80
2021/07/04 06:24:11;;;;;;;15.32;11.57;;;;;;;;;;5077715;28;38919;-79
2021/07/04 06:26:39;;;;;;;14.05;11.10;;;;;;;;;;5083205;28;38960;-79
2021/07/04 06:29:06;;;;;;;14.05;11.32;;;;;;;;;;5085058;28;38824;-80
2021/07/04 06:31:33;;;;;;;11.70;9.57;;;;;;;;;;5085746;28;38264;-82
2021/07/04 06:34:02;;;;;;;11.00;9.85;;;;;;;;;;5081974;28;36879;-81
2021/07/04 06:36:29;;;;;;;9.88;8.45;;;;;;;;;;5080227;28;47664;-80
2021/07/04 06:39:02;;;;;;;7.20;6.50;;;;;;;;;;5083061;28;37264;-81
2021/07/04 06:41:28;;;;;;;9.35;6.18;;;;;;;;;;5082408;28;48142;-80
2021/07/04 06:43:55;;;;;;;7.20;4.60;;;;;;;;;;5086530;28;35838;-81
2021/07/04 06:46:21;;;;;;;6.05;4.47;;;;;;;;;;5084633;28;38840;-80
2021/07/04 06:48:48;;;;;;;6.25;5.30;;;;;;;;;;5079550;28;39508;-80
2021/07/04 06:51:14;;;;;;;7.38;5.63;;;;;;;;;;5071786;28;39407;-80
2021/07/04 06:53:40;;;;;;;9.18;5.95;;;;;;;;;;5073336;28;39882;-81
2021/07/04 06:56:07;;;;;;;7.65;6.40;;;;;;;;;;5067394;28;37483;-81
2021/07/04 06:58:33;;;;;;;6.80;5.75;;;;;;;;;;5075085;28;37289;-81
2021/07/04 07:00:59;;;;;;;7.70;6.15;;;;;;;;;;5072428;28;37785;-81
2021/07/04 07:03:26;;;;;;;8.48;6.10;;;;;;;;;;5069467;28;35630;-80
2021/07/04 07:05:52;;;;;;;6.95;5.88;;;;;;;;;;5075015;28;40090;-80
2021/07/04 07:08:19;;;;;;;8.13;6.28;;;;;;;;;;5072128;28;38678;-82
2021/07/04 07:10:45;;;;;;;5.80;5.28;;;;;;;;;;5069961;28;36944;-81
2021/07/04 07:13:12;;;;;;;5.97;5.38;;;;;;;;;;5070773;28;37982;-80
2021/07/04 07:15:38;;;;;;;5.45;4.95;;;;;;;;;;5070088;28;39449;-80
2021/07/04 07:18:04;;;;;;;5.55;4.88;;;;;;;;;;5074779;28;38819;-79
2021/07/04 07:20:31;;;;;;;4.45;4.05;;;;;;;;;;5073386;28;38232;-81
2021/07/04 07:22:57;;;;;;;4.80;4.07;;;;;;;;;;5084096;28;37644;-80
2021/07/04 07:25:24;;;;;;;5.32;3.88;;;;;;;;;;5080150;27;39238;-80
2021/07/04 07:27:50;;;;;;;4.63;4.05;;;;;;;;;;5071765;28;38802;-80
2021/07/04 07:30:17;;;;;;;5.15;4.63;;;;;;;;;;5078658;27;39773;-79
2021/07/04 07:32:43;;;;;;;4.45;3.58;;;;;;;;;;5081685;28;35530;-79
2021/07/04 07:35:10;;;;;;;3.63;3.20;;;;;;;;;;5085159;28;37765;-79
2021/07/04 07:37:37;;;;;;;4.07;2.60;;;;;;;;;;5087414;28;39882;-80
2021/07/04 07:40:05;;;;;;;3.42;1.80;;;;;;;;;;5093176;28;38035;-80
2021/07/04 07:42:34;;;;;;;3.10;1.80;;;;;;;;;;5094028;28;47907;-81
2021/07/04 07:45:04;;;;;;;1.45;1.30;;;;;;;;;;5085377;28;39897;-81
2021/07/04 07:47:31;;;;;;;2.20;1.60;;;;;;;;;;5088594;28;48226;-80
2021/07/04 07:50:01;;;;;;;1.48;1.38;;;;;;;;;;5097549;28;38165;-80
2021/07/04 07:52:57;;;;;;;1.60;1.40;;;;;;;;;;5088418;28;38023;-81
2021/07/04 07:55:23;;;;;;;2.72;1.63;;;;;;;;;;5095970;28;39382;-80
2021/07/04 07:57:54;;;;;;;3.30;2.17;;;;;;;;;;5095736;28;38577;-81
2021/07/04 08:00:23;;;;;;;1.80;1.50;;;;;;;;;;5092025;28;39202;-80
2021/07/04 08:02:50;;;;;;;3.42;2.20;;;;;;;;;;5098240;28;35900;-81
2021/07/04 08:05:18;;;;;;;3.13;2.08;;;;;;;;;;5096399;28;40493;-80
2021/07/04 08:07:44;;;;;;;2.70;2.22;;;;;;;;;;5093682;28;39006;-81
2021/07/04 08:10:39;;;;;;;2.50;1.80;;;;;;;;;;5069888;27;38547;-81
2021/07/04 08:13:28;;;;;;;2.47;1.60;;;;;;;;;;5099428;28;37061;-80
2021/07/04 08:15:55;;;;;;;1.92;1.50;;;;;;;;;;5088281;28;38796;-81
2021/07/04 08:23:46;;;;;;;2.47;1.50;;;;;;;;;;6102078;22;20742;-81
2021/07/04 08:26:20;;;;;;;1.98;1.70;;;;;;;;;;5060410;28;39950;-81
2021/07/04 08:29:06;;;;;;;2.83;1.80;;;;;;;;;;5048102;28;38613;-81
2021/07/04 08:32:00;;;;;;;2.67;1.33;;;;;;;;;;5031161;28;49202;-81
2021/07/04 08:34:59;;;;;;;1.67;1.30;;;;;;;;;;5675959;22;38564;-81
2021/07/04 08:43:18;;;;;;;1.45;1.10;;;;;;;;;;5695921;22;20041;-80
2021/07/04 08:48:15;;;;;;;1.83;1.20;;;;;;;;;;5033799;28;20490;-78
2021/07/04 08:50:41;;;;;;;1.95;1.20;;;;;;;;;;5017301;28;41282;-78
2021/07/04 08:53:08;;;;;;;2.80;1.20;;;;;;;;;;5017222;28;38916;-79
2021/07/04 08:55:34;;;;;;;2.50;1.27;;;;;;;;;;5036010;28;37001;-78
2021/07/04 08:58:01;;;;;;;2.05;1.27;;;;;;;;;;5006391;28;38718;-79
2021/07/04 09:00:27;;;;;;;1.63;1.15;;;;;;;;;;5006619;28;47405;-78
2021/07/04 09:02:57;;;;;;;0.77;0.77;;;;;;;;;;5032202;28;38180;-80
2021/07/04 09:05:25;;;;;;;1.65;0.95;;;;;;;;;;5010002;28;37532;-80
2021/07/04 09:08:16;;;;;;;1.98;1.00;;;;;;;;;;5024378;28;39364;-81
2021/07/04 09:10:43;;;;;;;2.08;1.20;;;;;;;;;;5008685;28;47472;-79
2021/07/04 09:13:24;;;;;;;2.22;1.00;;;;;;;;;;5012980;28;38236;-79
2021/07/04 09:16:08;;;;;;;1.20;1.10;;;;;;;;;;5040039;28;36760;-80
2021/07/04 09:27:07;;;;;;;1.77;1.10;;;;;;;;;;5179065;22;20041;-79
2021/07/04 09:29:40;;;;;;;1.50;1.17;;;;;;;;;;5069791;28;38449;-78
2021/07/04 09:32:33;;;;;;;1.55;0.90;;;;;;;;;;5083785;28;39745;-79
2021/07/04 09:35:05;;;;;;;1.08;0.90;;;;;;;;;;5063544;28;39929;-79
2021/07/04 09:37:36;;;;;;;2.28;0.95;;;;;;;;;;5037864;28;47754;-78
2021/07/04 09:40:08;;;;;;;2.50;0.90;;;;;;;;;;5065636;28;40237;-79
2021/07/04 09:42:35;;;;;;;1.98;1.20;;;;;;;;;;5042232;28;47688;-79
2021/07/04 09:45:01;;;;;;;1.48;1.10;;;;;;;;;;5070953;28;37833;-79
2021/07/04 09:47:28;;;;;;;2.50;1.20;;;;;;;;;;5059193;28;37048;-79
2021/07/04 09:50:03;;;;;;;1.20;0.90;;;;;;;;;;5065320;28;41680;-80
2021/07/04 09:52:29;;;;;;;1.20;1.10;;;;;;;;;;5056936;28;41567;-80
2021/07/04 09:55:11;;;;;;;1.50;1.27;;;;;;;;;;5070899;28;36947;-80
2021/07/04 09:57:50;;;;;;;;;;;;;;;;;;5064702;28;49212;-81
2021/07/04 10:03:27;;;;;;;4.72;1.50;;;;;;;;;;5417772;22;48964;-79
2021/07/04 10:16:30;;;;;;;1.50;1.25;;;;;;;;;;5150056;22;20052;-81
2021/07/04 10:19:00;;;;;;;2.10;1.17;;;;;;;;;;5084546;28;37090;-81
2021/07/04 10:21:28;;;;;;;3.85;1.27;;;;;;;;;;5079001;28;39282;-80
2021/07/04 10:29:18;;;;;;;2.17;1.30;;;;;;;;;;5478905;22;1237455;-81
2021/07/04 10:31:47;;;;;;;2.08;1.20;;;;;;;;;;5095701;28;39241;-82
2021/07/04 10:34:15;;;;;;;2.45;1.33;;;;;;;;;;5080055;28;38522;-81
2021/07/04 10:36:55;;;;;;;1.98;1.40;;;;;;;;;;5091625;28;40508;-81
2021/07/04 10:39:22;;;;;;;2.10;1.20;;;;;;;;;;5081117;28;36993;-81
2021/07/04 10:41:58;;;;;;;1.48;1.05;;;;;;;;;;5082339;28;38155;-82
2021/07/04 10:44:38;;;;;;;0.98;0.88;;;;;;;;;;5080635;28;37608;-82
2021/07/04 10:47:06;;;;;;;1.58;0.93;;;;;;;;;;5062379;28;36990;-81
2021/07/04 10:49:38;;;;;;;1.50;1.13;;;;;;;;;;5086468;28;36643;-81
2021/07/04 10:52:12;;;;;;;2.20;0.93;;;;;;;;;;5077843;28;38382;-81
2021/07/04 10:54:44;;;;;;;1.30;1.10;;;;;;;;;;5089938;28;37719;-81
2021/07/04 10:57:22;;;;;;;1.17;0.82;;;;;;;;;;5078648;28;38245;-81
2021/07/04 11:00:02;;;;;;;2.70;0.98;;;;;;;;;;5076925;28;38310;-81
2021/07/04 11:02:38;;;;;;;2.17;0.98;;;;;;;;;;5086872;28;41534;-81
2021/07/04 11:05:05;;;;;;;2.38;1.20;;;;;;;;;;5079674;28;38029;-81
2021/07/04 11:07:51;;;;;;;1.35;0.95;;;;;;;;;;5068877;28;47531;-80
2021/07/04 11:10:19;;;;;;;1.38;1.02;;;;;;;;;;5084479;28;37223;-81
2021/07/04 11:12:48;;;;;;;2.35;1.60;;;;;;;;;;5082208;28;38502;-81
2021/07/04 11:15:14;;;;;;;3.13;1.60;;;;;;;;;;5090148;28;38654;-80
2021/07/04 11:18:01;;;;;;;2.45;1.40;;;;;;;;;;5083029;28;38300;-81
2021/07/04 11:20:31;;;;;;;3.90;1.55;;;;;;;;;;5086707;28;48494;-81
2021/07/04 11:23:01;;;;;;;2.67;1.88;;;;;;;;;;5085060;28;39025;-81
2021/07/04 11:25:48;;;;;;;1.63;1.15;;;;;;;;;;5090824;28;47502;-80
2021/07/04 11:28:20;;;;;;;2.10;1.40;;;;;;;;;;5084797;28;39415;-80
2021/07/04 11:31:13;;;;;;;3.58;1.35;;;;;;;;;;5091078;28;38308;-80
2021/07/04 11:33:42;;;;;;;2.63;1.40;;;;;;;;;;5065894;28;48123;-81
2021/07/04 11:36:08;;;;;;;2.38;1.33;;;;;;;;;;5090420;28;37968;-81
2021/07/04 11:38:43;;;;;;;2.05;1.58;;;;;;;;;;5087124;28;36934;-81
2021/07/04 11:41:12;;;;;;;2.67;1.75;;;;;;;;;;5088521;27;38311;-81
2021/07/04 11:44:06;;;;;;;3.05;1.90;;;;;;;;;;5081121;28;38477;-81
2021/07/04 11:46:40;;;;;;;1.95;1.30;;;;;;;;;;5057548;28;47073;-81
2021/07/04 11:49:19;;;;;;;2.42;2.10;;;;;;;;;;5088108;28;36671;-80
2021/07/04 11:52:02;;;;;;;2.28;1.60;;;;;;;;;;5088134;28;36057;-81
2021/07/04 11:54:28;;;;;;;2.28;1.98;;;;;;;;;;5085436;28;46952;-81
2021/07/04 11:57:29;;;;;;;4.00;2.30;;;;;;;;;;5089613;28;37366;-81
2021/07/04 11:59:51;;;;;;;3.22;2.03;;;;;;;;;;5091022;28;49541;-82
2021/07/04 12:02:25;;;;;;;2.97;1.95;;;;;;;;;;5093998;28;38253;-81
2021/07/04 12:04:53;;;;;;;1.85;1.70;;;;;;;;;;5086991;28;38066;-81
2021/07/04 12:07:24;;;;;;;3.42;1.95;;;;;;;;;;5091034;28;37831;-81
2021/07/04 12:09:52;;;;;;;2.88;1.50;;;;;;;;;;5088994;28;38240;-81
2021/07/04 12:12:23;;;;;;;1.88;1.15;;;;;;;;;;5085935;28;36430;-82
2021/07/04 12:14:54;;;;;;;1.02;0.90;;;;;;;;;;5081829;28;39133;-81
2021/07/04 12:17:23;;;;;;;1.40;0.73;;;;;;;;;;5080733;28;39939;-81
2021/07/04 12:20:12;;;;;;;1.50;1.20;;;;;;;;;;5092842;28;37399;-82
2021/07/04 12:22:43;;;;;;;2.00;1.23;;;;;;;;;;5074727;28;49398;-82
2021/07/04 12:25:30;;;;;;;1.10;0.93;;;;;;;;;;5087800;28;39918;-81
2021/07/04 12:27:58;;;;;;;1.48;1.38;;;;;;;;;;5086984;28;38561;-82
2021/07/04 12:30:28;;;;;;;1.92;1.77;;;;;;;;;;5075801;28;38645;-82
2021/07/04 12:35:38;;;;;;;2.80;2.20;;;;;;;;;;5350909;22;19921;-81
2021/07/04 12:38:08;;;;;;;2.65;2.45;;;;;;;;;;5080058;28;39993;-81
2021/07/04 12:40:36;;;;;;;2.00;1.80;;;;;;;;;;5080474;28;37206;-82
2021/07/04 12:43:12;;;;;;;2.70;1.70;;;;;;;;;;5074899;28;35969;-81
2021/07/04 12:45:43;;;;;;;2.85;2.03;;;;;;;;;;5080303;28;39707;-81
2021/07/04 12:48:10;;;;;;;5.35;2.05;;;;;;;;;;5080259;28;39717;-82
2021/07/04 12:50:41;;;;;;;2.10;1.90;;;;;;;;;;5084243;28;38893;-82
2021/07/04 12:53:07;;;;;;;3.47;1.85;;;;;;;;;;5076655;28;35943;-82
2021/07/04 12:55:35;;;;;;;3.22;2.00;;;;;;;;;;5077216;28;37861;-81
2021/07/04 12:58:25;;;;;;;1.90;1.60;;;;;;;;;;5082576;28;38319;-81
2021/07/04 13:00:52;;;;;;;2.33;1.58;;;;;;;;;;5070989;28;47304;-81
2021/07/04 13:03:38;;;;;;;2.08;1.60;;;;;;;;;;5071465;28;36610;-81
2021/07/04 13:06:05;;;;;;;2.92;1.48;;;;;;;;;;5074169;28;39224;-81
2021/07/04 13:08:32;;;;;;;2.25;1.65;;;;;;;;;;5079271;28;37653;-81
2021/07/04 13:10:59;;;;;;;2.40;1.60;;;;;;;;;;5077247;28;36963;-81
2021/07/04 13:13:26;;;;;;;2.22;1.70;;;;;;;;;;5070244;28;38328;-82
2021/07/04 13:15:52;;;;;;;2.42;1.60;;;;;;;;;;5079314;28;38884;-82
2021/07/04 13:18:28;;;;;;;2.75;1.30;;;;;;;;;;5081354;28;39540;-81
2021/07/04 13:20:55;;;;;;;1.55;1.30;;;;;;;;;;5081004;28;37284;-82
2021/07/04 13:23:22;;;;;;;3.33;2.45;;;;;;;;;;5075384;27;35806;-81
2021/07/04 13:25:54;;;;;;;3.97;2.40;;;;;;;;;;5080300;28;39138;-82
2021/07/04 13:28:20;;;;;;;;;;;;;;;;;;5087344;28;37815;-83
2021/07/04 13:30:52;;;;;;;7.50;3.22;;;;;;;;;;5088801;28;38254;-81
2021/07/04 13:33:29;;;;;;;6.45;3.85;;;;;;;;;;5086682;28;36739;-83
2021/07/04 13:35:57;;;;;;;6.03;3.88;;;;;;;;;;5090934;28;38876;-85
2021/07/04 13:46:12;;;;;;;8.57;4.30;;;;;;;;;;6001561;22;20074;-84
2021/07/04 13:48:42;;;;;;;6.13;4.40;;;;;;;;;;5092581;28;38076;-82
2021/07/04 13:51:14;;;;;;;5.90;4.40;;;;;;;;;;5069786;28;37679;-82
2021/07/04 13:53:43;;;;;;;6.18;4.43;;;;;;;;;;5088800;28;37802;-82
2021/07/04 13:56:25;;;;;;;5.60;3.85;;;;;;;;;;5084431;28;39344;-83
2021/07/04 13:59:04;;;;;;;7.97;4.43;;;;;;;;;;5093948;28;38910;-82
2021/07/04 14:01:55;;;;;;;5.65;3.85;;;;;;;;;;5087888;28;47997;-83
2021/07/04 14:04:22;;;;;;;6.10;4.60;;;;;;;;;;5258254;22;37460;-83
2021/07/04 14:07:14;;;;;;;5.55;3.97;;;;;;;;;;5096083;28;38794;-83
2021/07/04 14:09:42;;;;;;;4.70;3.80;;;;;;;;;;5086887;28;48821;-84
2021/07/04 14:12:08;;;;;;;4.18;3.50;;;;;;;;;;5090559;28;39235;-83
2021/07/04 14:14:35;;;;;;;4.10;3.70;;;;;;;;;;5090584;28;35892;-83
2021/07/04 14:17:05;;;;;;;4.63;3.83;;;;;;;;;;5092224;28;38275;-83
2021/07/04 14:19:37;;;;;;;5.75;3.97;;;;;;;;;;5087722;28;38825;-83
2021/07/04 14:22:04;;;;;;;5.13;4.60;;;;;;;;;;5090983;28;37230;-83
2021/07/04 14:24:32;;;;;;;6.28;3.80;;;;;;;;;;5094466;28;37418;-83
2021/07/04 14:27:01;;;;;;;5.70;4.00;;;;;;;;;;5081797;28;39110;-83
2021/07/04 14:29:38;;;;;;;8.52;4.53;;;;;;;;;;5086448;28;48523;-83
2021/07/04 14:32:05;;;;;;;5.68;3.72;;;;;;;;;;5085273;28;38439;-81
2021/07/04 14:34:32;;;;;;;5.35;4.07;;;;;;;;;;5077158;28;35749;-81
2021/07/04 14:37:01;;;;;;;7.82;4.00;;;;;;;;;;5086655;28;39134;-81
2021/07/04 14:39:29;;;;;;;4.53;3.90;;;;;;;;;;5080420;28;39311;-82
2021/07/04 14:41:59;;;;;;;6.57;4.40;;;;;;;;;;5092128;28;38399;-82
2021/07/04 14:44:26;;;;;;;4.72;3.47;;;;;;;;;;5089005;28;35991;-82
2021/07/04 14:46:53;;;;;;;6.13;3.75;;;;;;;;;;5087602;28;38947;-82
2021/07/04 14:49:19;;;;;;;5.35;3.75;;;;;;;;;;5092930;28;39194;-83
2021/07/04 14:51:52;;;;;;;5.03;4.03;;;;;;;;;;5073031;28;39188;-82
2021/07/04 14:54:24;;;;;;;4.10;3.35;;;;;;;;;;5088140;28;38336;-81
2021/07/04 14:56:50;;;;;;;3.22;2.65;;;;;;;;;;5081837;28;39395;-82
2021/07/04 14:59:17;;;;;;;2.97;2.65;;;;;;;;;;5092185;28;39275;-81
2021/07/04 15:01:48;;;;;;;5.18;3.25;;;;;;;;;;5087396;28;38269;-82
2021/07/04 15:04:14;;;;;;;2.60;2.40;;;;;;;;;;5086412;28;36902;-82
2021/07/04 15:06:43;;;;;;;3.20;2.42;;;;;;;;;;5088643;28;39588;-82
2021/07/04 15:09:26;;;;;;;3.75;2.90;;;;;;;;;;5095742;28;38541;-81
2021/07/04 15:11:52;;;;;;;4.47;3.08;;;;;;;;;;5083480;28;39463;-82
2021/07/04 15:14:19;;;;;;;3.40;2.50;;;;;;;;;;5075265;28;37389;-81
2021/07/04 15:16:46;;;;;;;3.75;2.80;;;;;;;;;;5080550;28;39447;-83
2021/07/04 15:19:12;;;;;;;3.22;2.92;;;;;;;;;;5085879;28;39828;-79
2021/07/04 15:21:45;;;;;;;3.67;2.63;;;;;;;;;;5084834;28;38665;-81
2021/07/04 15:24:11;;;;;;;2.63;1.95;;;;;;;;;;5089062;28;37356;-81
2021/07/04 15:26:39;;;;;;;6.00;2.78;;;;;;;;;;5082041;28;41165;-81
2021/07/04 15:29:06;;;;;;;2.78;2.53;;;;;;;;;;5084650;28;37819;-80
2021/07/04 15:31:34;;;;;;;3.13;2.28;;;;;;;;;;5083207;28;38818;-81
2021/07/04 15:34:01;;;;;;;3.00;2.35;;;;;;;;;;5091528;28;36201;-81
2021/07/04 15:36:33;;;;;;;3.45;2.40;;;;;;;;;;5095643;28;48040;-81
2021/07/04 15:39:02;;;;;;;4.30;2.38;;;;;;;;;;5094127;28;38096;-81
2021/07/04 15:41:29;;;;;;;1.92;1.80;;;;;;;;;;5086002;28;47787;-81
2021/07/04 15:43:55;;;;;;;2.10;1.58;;;;;;;;;;5093903;28;37033;-81
2021/07/04 15:46:30;;;;;;;3.78;2.20;;;;;;;;;;5091788;28;38580;-82
2021/07/04 15:48:57;;;;;;;2.67;2.15;;;;;;;;;;5090622;28;40010;-81
2021/07/04 15:51:25;;;;;;;3.97;2.47;;;;;;;;;;5084891;28;37220;-82
2021/07/04 15:54:02;;;;;;;3.40;2.45;;;;;;;;;;5087249;28;36654;-81
2021/07/04 15:56:29;;;;;;;4.22;2.63;;;;;;;;;;5089017;28;47964;-81
2021/07/04 15:58:56;;;;;;;3.40;2.58;;;;;;;;;;5089869;28;38539;-81
2021/07/04 16:01:23;;;;;;;4.68;2.30;;;;;;;;;;5086913;28;38360;-82
2021/07/04 16:03:52;;;;;;;4.00;2.22;;;;;;;;;;5091175;28;36891;-81
2021/07/04 16:06:20;;;;;;;3.33;2.50;;;;;;;;;;5083447;28;40349;-81
2021/07/04 16:08:46;;;;;;;4.25;2.40;;;;;;;;;;5080972;28;38804;-81
2021/07/04 16:11:13;;;;;;;3.83;2.42;;;;;;;;;;5074889;28;39053;-80
2021/07/04 16:13:40;;;;;;;2.45;1.98;;;;;;;;;;5066619;28;36699;-80
2021/07/04 16:16:07;;;;;;;4.97;2.17;;;;;;;;;;5076340;28;39925;-80
2021/07/04 16:18:34;;;;;;;2.70;2.15;;;;;;;;;;5066936;28;39212;-79
2021/07/04 16:21:00;;;;;;;2.10;1.90;;;;;;;;;;5062724;28;38428;-79
2021/07/04 16:23:26;;;;;;;6.25;2.25;;;;;;;;;;5069844;28;36761;-80
2021/07/04 16:25:53;;;;;;;3.58;1.70;;;;;;;;;;5077389;28;39109;-80
2021/07/04 16:28:19;;;;;;;4.65;1.90;;;;;;;;;;5073728;28;37245;-80
2021/07/04 16:30:49;;;;;;;5.43;1.88;;;;;;;;;;5066678;28;37929;-80
2021/07/04 16:33:33;;;;;;;3.28;2.20;;;;;;;;;;5074326;28;35872;-80
2021/07/04 16:36:34;;;;;;;3.08;2.20;;;;;;;;;;5040465;28;40334;-80
2021/07/04 16:39:30;;;;;;;3.75;2.08;;;;;;;;;;5041585;28;47806;-81
2021/07/04 16:45:04;;;;;;;2.63;2.40;;;;;;;;;;5050902;28;48831;-78
2021/07/04 16:47:35;;;;;;;5.70;2.70;;;;;;;;;;5011133;28;47610;-81
2021/07/04 16:50:15;;;;;;;;;;;;;;;;;;;;;
2021/07/04 16:52:47;;;;;;;4.90;2.88;;;;;;;;;;5054129;28;49019;-81
2021/07/04 16:55:22;;;;;;;;;;;;;;;;;;5050985;28;39157;-80
2021/07/04 16:58:09;;;;;;;;;;;;;;;;;;;;;
2021/07/04 17:01:01;;;;;;;4.50;2.08;;;;;;;;;;5073330;28;47935;-81
2021/07/04 17:03:55;;;;;;;2.83;2.20;;;;;;;;;;5079987;28;47741;-81
2021/07/04 17:06:24;;;;;;;4.97;2.60;;;;;;;;;;5044013;28;35880;-81
2021/07/04 17:08:51;;;;;;;2.83;2.40;;;;;;;;;;5045832;28;39057;-81
2021/07/04 17:11:17;;;;;;;5.20;2.50;;;;;;;;;;5083875;28;38998;-80
2021/07/04 17:13:44;;;;;;;2.40;2.20;;;;;;;;;;5093936;28;39659;-81
2021/07/04 17:16:18;;;;;;;3.22;2.45;;;;;;;;;;5080194;28;36893;-82
2021/07/04 17:18:45;;;;;;;7.22;2.28;;;;;;;;;;5088296;28;39557;-81
2021/07/04 17:21:22;;;;;;;3.78;2.53;;;;;;;;;;5076097;28;37803;-80
2021/07/04 17:23:50;;;;;;;5.68;2.55;;;;;;;;;;5079533;28;37684;-81
2021/07/04 17:26:17;;;;;;;3.25;2.22;;;;;;;;;;5076486;28;37180;-80
2021/07/04 17:28:44;;;;;;;2.78;2.20;;;;;;;;;;5078645;28;38426;-80
2021/07/04 17:31:14;;;;;;;3.25;1.77;;;;;;;;;;5068566;28;38698;-80
2021/07/04 17:33:45;;;;;;;2.35;1.88;;;;;;;;;;5067876;28;36889;-80
2021/07/04 17:36:11;;;;;;;2.45;1.63;;;;;;;;;;5071152;28;37015;-79
2021/07/04 17:38:38;;;;;;;2.55;1.83;;;;;;;;;;5061846;28;38148;-80
2021/07/04 17:41:05;;;;;;;2.35;1.88;;;;;;;;;;5063258;28;39339;-79
2021/07/04 17:43:32;;;;;;;5.80;1.98;;;;;;;;;;5064572;28;39984;-79
2021/07/04 17:45:58;;;;;;;2.85;1.80;;;;;;;;;;5062633;28;36712;-80
2021/07/04 17:48:24;;;;;;;1.70;1.60;;;;;;;;;;5066642;28;37184;-80
2021/07/04 17:50:54;;;;;;;3.13;2.08;;;;;;;;;;5067386;28;37892;-80
2021/07/04 17:53:21;;;;;;;4.00;2.28;;;;;;;;;;5072080;28;38396;-79
2021/07/04 17:55:47;;;;;;;3.90;2.38;;;;;;;;;;5073930;28;36735;-79
2021/07/04 17:58:14;;;;;;;3.15;1.90;;;;;;;;;;5065265;28;37885;-80
2021/07/04 18:00:41;;;;;;;2.42;1.80;;;;;;;;;;5057499;28;37394;-80
2021/07/04 18:03:07;;;;;;;2.10;1.90;;;;;;;;;;5063270;28;39024;-80
2021/07/04 18:05:33;;;;;;;3.17;1.70;;;;;;;;;;5059915;28;36978;-80
2021/07/04 18:08:00;;;;;;;3.65;1.67;;;;;;;;;;5069093;28;37273;-80
2021/07/04 18:10:27;;;;;;;3.53;1.77;;;;;;;;;;5065957;28;39243;-80
2021/07/04 18:12:55;;;;;;;2.35;1.60;;;;;;;;;;5067294;28;37249;-80
2021/07/04 18:15:22;;;;;;;3.67;1.55;;;;;;;;;;5066100;28;38224;-81
2021/07/04 18:17:48;;;;;;;2.33;1.27;;;;;;;;;;5060802;28;38572;-80
2021/07/04 18:20:15;;;;;;;3.40;1.38;;;;;;;;;;5060322;28;38868;-80
2021/07/04 18:22:42;;;;;;;1.77;1.30;;;;;;;;;;5061123;28;38738;-79
2021/07/04 18:25:09;;;;;;;2.15;1.40;;;;;;;;;;5058990;28;37314;-79
2021/07/04 18:27:36;;;;;;;1.50;1.08;;;;;;;;;;5058067;28;40447;-79
2021/07/04 18:30:04;;;;;;;3.45;1.58;;;;;;;;;;5057805;28;39207;-80
2021/07/04 18:32:31;;;;;;;1.40;1.30;;;;;;;;;;5057671;28;47073;-79
2021/07/04 18:34:57;;;;;;;2.33;1.55;;;;;;;;;;5062239;28;35368;-80
2021/07/04 18:37:24;;;;;;;4.05;1.60;;;;;;;;;;5068431;28;39140;-79
2021/07/04 18:39:50;;;;;;;1.52;1.30;;;;;;;;;;5067331;28;37025;-79
2021/07/04 18:42:17;;;;;;;2.65;1.30;;;;;;;;;;5064509;28;39106;-79
2021/07/04 18:44:46;;;;;;;2.70;1.40;;;;;;;;;;5070363;28;36855;-80
2021/07/04 18:47:12;;;;;;;1.42;1.20;;;;;;;;;;5075349;27;40464;-79
2021/07/04 18:49:39;;;;;;;2.15;1.67;;;;;;;;;;5061206;28;38659;-79
2021/07/04 18:52:05;;;;;;;3.92;1.30;;;;;;;;;;5051374;28;36652;-80
2021/07/04 18:54:32;;;;;;;2.72;1.20;;;;;;;;;;5065132;28;37984;-79
2021/07/04 18:56:58;;;;;;;1.10;1.00;;;;;;;;;;5063587;28;39266;-79
2021/07/04 18:59:24;;;;;;;0.90;0.90;;;;;;;;;;5077103;28;39510;-80
2021/07/04 19:01:51;;;;;;;2.75;1.20;;;;;;;;;;5079170;28;38181;-80
2021/07/04 19:04:17;;;;;;;2.15;1.20;;;;;;;;;;5061224;28;37351;-79
2021/07/04 19:06:44;;;;;;;0.95;0.80;;;;;;;;;;5070914;28;39326;-80
2021/07/04 19:09:11;;;;;;;1.00;0.90;;;;;;;;;;5061253;28;39610;-81
2021/07/04 19:11:38;;;;;;;7.57;1.20;;;;;;;;;;5069019;28;39319;-79
2021/07/04 19:14:07;;;;;;;2.60;1.02;;;;;;;;;;5059544;28;37223;-79
2021/07/04 19:16:33;;;;;;;1.27;0.93;;;;;;;;;;5063815;28;38589;-80
2021/07/04 19:19:00;;;;;;;1.95;0.90;;;;;;;;;;5058695;28;38505;-80
2021/07/04 19:21:26;;;;;;;1.70;1.02;;;;;;;;;;5053461;28;37026;-79
2021/07/04 19:23:54;;;;;;;0.75;0.75;;;;;;;;;;5055645;28;37464;-79
2021/07/04 19:26:20;;;;;;;1.33;0.85;;;;;;;;;;5053021;28;38965;-79
2021/07/04 19:28:48;;;;;;;1.73;0.95;;;;;;;;;;5062163;28;38196;-79
2021/07/04 19:31:14;;;;;;;2.15;0.85;;;;;;;;;;5058660;28;37051;-79
2021/07/04 19:33:42;;;;;;;5.80;1.13;;;;;;;;;;5055244;28;36176;-79
2021/07/04 19:36:08;;;;;;;3.33;0.90;;;;;;;;;;5057612;28;40472;-80
2021/07/04 19:38:36;;;;;;;1.02;1.02;;;;;;;;;;5054675;28;38198;-79
2021/07/04 19:41:02;;;;;;;3.55;1.10;;;;;;;;;;5056919;28;39332;-78
2021/07/04 19:43:29;;;;;;;3.05;1.52;;;;;;;;;;5055247;28;37159;-79
2021/07/04 19:45:55;;;;;;;1.45;0.90;;;;;;;;;;5059024;28;40904;-79
2021/07/04 19:48:22;;;;;;;3.95;1.30;;;;;;;;;;5053118;28;40051;-79
2021/07/04 19:50:49;;;;;;;3.22;1.17;;;;;;;;;;5053785;28;40028;-79
2021/07/04 19:53:15;;;;;;;1.58;1.17;;;;;;;;;;5059774;28;37506;-79
2021/07/04 19:55:41;;;;;;;1.80;0.90;;;;;;;;;;5061013;28;38534;-79
2021/07/04 19:58:08;;;;;;;1.33;1.23;;;;;;;;;;5058238;28;38211;-80
2021/07/04 20:00:34;;;;;;;1.63;1.30;;;;;;;;;;5061880;28;37874;-78
2021/07/04 20:03:02;;;;;;;1.80;1.40;;;;;;;;;;5065030;28;38717;-79
2021/07/04 20:05:29;;;;;;;2.97;1.17;;;;;;;;;;5076345;28;48186;-79
2021/07/04 20:07:56;;;;;;;1.20;1.08;;;;;;;;;;5056113;28;38490;-79
2021/07/04 20:10:24;;;;;;;1.88;1.70;;;;;;;;;;5058012;28;38288;-78
2021/07/04 20:12:51;;;;;;;1.73;1.30;;;;;;;;;;5058221;28;37207;-79
2021/07/04 20:15:17;;;;;;;3.20;1.38;;;;;;;;;;5054898;28;38994;-79
2021/07/04 20:17:44;;;;;;;4.20;1.80;;;;;;;;;;5060897;28;39006;-79
2021/07/04 20:20:11;;;;;;;2.08;1.67;;;;;;;;;;5059974;28;38484;-79
2021/07/04 20:22:38;;;;;;;2.80;1.38;;;;;;;;;;5065561;28;37983;-79